Forest Grove, MT

5:43 PM MDT on August 22, 2014 (GMT -0600)
Billings Logan International | Change Station
CLOSE
Current Station
Airport
Location: Billings,
Elevation: 3570 ft
Nearby Weather Stations

Elev 3570 ft 45.81 °N, 108.54 °W | Updated 50 minutes ago

Overcast
Overcast
64 °F
Feels Like 64 °F
N
10
Wind Variable Wind from NE

Today
High -- | Low -- °F
--% Chance of Precip.
Yesterday
High -- | Low -- °F
Precip. -- in
6:22 AM 8:14 PM
Waning Crescent, 6% visible
Pressure 29.99 in
Visibility 10.0 miles
Clouds Few 2000 ft
Mostly Cloudy 7500 ft
Overcast 11000 ft
Dew Point 56 °F
Humidity 75%
Rainfall 0.11 in
Snow Depth Not available.
UV 1 out of 12
Pollen 3.80 out of 12
Air Quality Not available.
Flu Activity Not available.
METAR KBIL 222253Z 04009KT 10SM FEW020 BKN075 OVC110 18/13 A3003 RMK AO2 SLP154 CB DSNT NW SHRA DSNT ALQDS T01780133 $

More Conditions Fewer Conditions

Pressure 29.99 in
Visibility 10.0 miles
Clouds Few 2000 ft
Mostly Cloudy 7500 ft
Overcast 11000 ft
Dew Point 56 °F
Humidity 75%
Rainfall 0.11 in
Snow Depth Not available.
UV 1 out of 12
Pollen 3.80 out of 12
Air Quality Not available.
Flu Activity Not available.
METAR KBIL 222253Z 04009KT 10SM FEW020 BKN075 OVC110 18/13 A3003 RMK AO2 SLP154 CB DSNT NW SHRA DSNT ALQDS T01780133 $

More Conditions Fewer Conditions

10-Day Weather Forecast

Almanac

Astronomy

Aug. 22, 2014 Rise Set
Actual Time 6:22 AM MDT 8:14 PM MDT
Civil Twilight 5:50 AM MDT 8:46 PM MDT
Nautical Twilight 5:10 AM MDT 9:26 PM MDT
Astronomical Twilight 4:26 AM MDT 10:09 PM MDT
Moon 3:43 AM MDT 6:27 PM MDT
Length of Visible Light 14h 56m
Length of Day
13h 51m
Tomorrow will be 3m 6s shorter.
Waning Crescent, 6% of the Moon is Illuminated
Today
Waning Crescent
Aug 25
New
Sep 2
First Quarter
Sep 8
Full
Sep 15
Last Quarter

Today's Extremes

State Highs State Lows

Community

WunderPhotos

Upload Photos

1,746,310 photos uploaded!

WunderBlogs® & News

By Dr. Jeff Masters
Director of Meteorology, Weather Underground
By Kari Strenfel
Meteorologist, Weather Underground
By Christopher C. Burt
Weather Historian, Weather Underground
August 22, 2014
August 22, 2014
August 22, 2014

Nearby

Snow Depth

Station Depth Elevation
Crystal Lake 0 in 6050 ft
Daisy Peak 0 in 7600 ft
Porcupine 1 in 6500 ft
Onion Park 0 in 7410 ft
South Fork Shields 0 in 8100 ft

Earthquake Activity

City Distance Mag. Time & Date
No recent earthquake activity has been reported nearby.
Minimum magnitude displayed is 2.5.

Coastal Water Temperatures

Place Temperature
No Stations Reporting

Nearby Weather Stations